sensor_id;sensor_type;location;lat;lon;timestamp;temperature;humidity
47434;SHT31;33184;48.774;8.918;2023-03-31T00:02:39;9.91;76.63
47434;SHT31;33184;48.774;8.918;2023-03-31T00:08:00;9.81;76.82
47434;SHT31;33184;48.774;8.918;2023-03-31T00:13:21;9.74;77.01
47434;SHT31;33184;48.774;8.918;2023-03-31T00:18:41;9.63;77.38
47434;SHT31;33184;48.774;8.918;2023-03-31T00:24:06;9.64;77.70
47434;SHT31;33184;48.774;8.918;2023-03-31T00:29:27;9.68;77.55
47434;SHT31;33184;48.774;8.918;2023-03-31T00:34:48;9.66;77.45
47434;SHT31;33184;48.774;8.918;2023-03-31T00:40:09;9.73;77.54
47434;SHT31;33184;48.774;8.918;2023-03-31T00:45:30;9.73;77.45
47434;SHT31;33184;48.774;8.918;2023-03-31T00:50:53;9.84;77.09
47434;SHT31;33184;48.774;8.918;2023-03-31T00:56:15;9.84;77.27
47434;SHT31;33184;48.774;8.918;2023-03-31T01:01:39;9.84;77.24
47434;SHT31;33184;48.774;8.918;2023-03-31T01:07:07;9.93;76.49
47434;SHT31;33184;48.774;8.918;2023-03-31T01:12:30;10.21;74.94
47434;SHT31;33184;48.774;8.918;2023-03-31T01:17:52;10.31;74.27
47434;SHT31;33184;48.774;8.918;2023-03-31T01:34:38;11.04;68.10
47434;SHT31;33184;48.774;8.918;2023-03-31T01:40:32;11.48;65.92
47434;SHT31;33184;48.774;8.918;2023-03-31T01:51:25;11.04;71.67
47434;SHT31;33184;48.774;8.918;2023-03-31T01:56:54;10.68;73.73
47434;SHT31;33184;48.774;8.918;2023-03-31T02:02:20;10.46;75.09
47434;SHT31;33184;48.774;8.918;2023-03-31T02:07:51;10.25;77.50
47434;SHT31;33184;48.774;8.918;2023-03-31T02:13:14;10.09;78.24
47434;SHT31;33184;48.774;8.918;2023-03-31T02:18:36;10.02;79.42
47434;SHT31;33184;48.774;8.918;2023-03-31T02:24:01;9.95;79.74
47434;SHT31;33184;48.774;8.918;2023-03-31T02:29:22;9.81;80.56
47434;SHT31;33184;48.774;8.918;2023-03-31T02:34:44;9.81;80.15
47434;SHT31;33184;48.774;8.918;2023-03-31T02:40:24;9.80;80.33
47434;SHT31;33184;48.774;8.918;2023-03-31T02:45:50;9.74;80.46
47434;SHT31;33184;48.774;8.918;2023-03-31T03:03:03;9.60;80.69
47434;SHT31;33184;48.774;8.918;2023-03-31T03:08:58;9.53;80.53
47434;SHT31;33184;48.774;8.918;2023-03-31T03:19:51;9.37;80.42
47434;SHT31;33184;48.774;8.918;2023-03-31T03:25:14;9.20;81.39
47434;SHT31;33184;48.774;8.918;2023-03-31T03:30:36;9.02;82.37
47434;SHT31;33184;48.774;8.918;2023-03-31T03:35:57;8.84;83.16
47434;SHT31;33184;48.774;8.918;2023-03-31T03:41:17;8.85;83.77
47434;SHT31;33184;48.774;8.918;2023-03-31T03:46:38;8.87;84.10
47434;SHT31;33184;48.774;8.918;2023-03-31T03:51:58;8.88;84.02
47434;SHT31;33184;48.774;8.918;2023-03-31T03:57:19;8.82;84.20
47434;SHT31;33184;48.774;8.918;2023-03-31T04:02:40;8.72;84.78
47434;SHT31;33184;48.774;8.918;2023-03-31T04:08:00;8.68;85.17
47434;SHT31;33184;48.774;8.918;2023-03-31T04:13:22;8.62;85.26
47434;SHT31;33184;48.774;8.918;2023-03-31T04:18:42;8.65;85.58
47434;SHT31;33184;48.774;8.918;2023-03-31T04:24:03;8.69;85.75
47434;SHT31;33184;48.774;8.918;2023-03-31T04:29:24;8.71;85.83
47434;SHT31;33184;48.774;8.918;2023-03-31T04:34:46;8.74;85.67
47434;SHT31;33184;48.774;8.918;2023-03-31T04:40:08;8.74;85.86
47434;SHT31;33184;48.774;8.918;2023-03-31T04:45:29;8.78;86.17
47434;SHT31;33184;48.774;8.918;2023-03-31T04:50:49;8.74;86.47
47434;SHT31;33184;48.774;8.918;2023-03-31T04:56:10;8.81;86.36
47434;SHT31;33184;48.774;8.918;2023-03-31T05:01:31;8.98;85.81
47434;SHT31;33184;48.774;8.918;2023-03-31T05:06:55;9.05;85.86
47434;SHT31;33184;48.774;8.918;2023-03-31T05:12:16;9.05;86.19
47434;SHT31;33184;48.774;8.918;2023-03-31T05:17:37;9.06;86.99
47434;SHT31;33184;48.774;8.918;2023-03-31T05:22:57;9.06;87.29
47434;SHT31;33184;48.774;8.918;2023-03-31T05:28:18;8.99;87.77
47434;SHT31;33184;48.774;8.918;2023-03-31T05:33:38;8.92;88.23
47434;SHT31;33184;48.774;8.918;2023-03-31T05:39:01;8.85;88.81
47434;SHT31;33184;48.774;8.918;2023-03-31T05:44:21;8.79;89.00
47434;SHT31;33184;48.774;8.918;2023-03-31T05:49:42;8.74;89.72
47434;SHT31;33184;48.774;8.918;2023-03-31T05:55:03;8.76;89.59
47434;SHT31;33184;48.774;8.918;2023-03-31T06:00:24;8.76;89.75
47434;SHT31;33184;48.774;8.918;2023-03-31T06:05:47;8.74;89.90
47434;SHT31;33184;48.774;8.918;2023-03-31T06:11:13;8.78;90.30
47434;SHT31;33184;48.774;8.918;2023-03-31T06:16:34;8.82;90.41
47434;SHT31;33184;48.774;8.918;2023-03-31T06:21:54;8.82;90.69
47434;SHT31;33184;48.774;8.918;2023-03-31T06:27:15;8.84;90.90
47434;SHT31;33184;48.774;8.918;2023-03-31T06:32:35;8.85;91.02
47434;SHT31;33184;48.774;8.918;2023-03-31T06:37:56;8.85;91.19
47434;SHT31;33184;48.774;8.918;2023-03-31T06:43:17;8.87;91.22
47434;SHT31;33184;48.774;8.918;2023-03-31T06:48:37;8.92;91.34
47434;SHT31;33184;48.774;8.918;2023-03-31T06:53:58;8.96;91.40
47434;SHT31;33184;48.774;8.918;2023-03-31T06:59:19;8.95;91.66
47434;SHT31;33184;48.774;8.918;2023-03-31T07:04:39;9.02;91.29
47434;SHT31;33184;48.774;8.918;2023-03-31T07:10:00;9.11;90.85
47434;SHT31;33184;48.774;8.918;2023-03-31T07:15:24;9.15;90.10
47434;SHT31;33184;48.774;8.918;2023-03-31T07:20:48;9.20;88.44
47434;SHT31;33184;48.774;8.918;2023-03-31T07:26:12;9.29;88.05
47434;SHT31;33184;48.774;8.918;2023-03-31T07:31:33;9.30;87.20
47434;SHT31;33184;48.774;8.918;2023-03-31T07:36:54;9.60;86.05
47434;SHT31;33184;48.774;8.918;2023-03-31T07:42:15;9.91;84.91
47434;SHT31;33184;48.774;8.918;2023-03-31T07:47:36;10.08;83.92
47434;SHT31;33184;48.774;8.918;2023-03-31T07:52:57;10.22;82.16
47434;SHT31;33184;48.774;8.918;2023-03-31T07:58:18;10.43;83.36
47434;SHT31;33184;48.774;8.918;2023-03-31T08:03:38;10.62;82.02
47434;SHT31;33184;48.774;8.918;2023-03-31T08:08:59;10.69;80.88
47434;SHT31;33184;48.774;8.918;2023-03-31T08:14:19;10.72;79.70
47434;SHT31;33184;48.774;8.918;2023-03-31T08:19:40;11.07;79.44
47434;SHT31;33184;48.774;8.918;2023-03-31T08:25:01;11.18;78.42
47434;SHT31;33184;48.774;8.918;2023-03-31T08:30:22;11.35;79.01
47434;SHT31;33184;48.774;8.918;2023-03-31T08:35:42;11.67;78.30
47434;SHT31;33184;48.774;8.918;2023-03-31T08:41:05;11.90;75.55
47434;SHT31;33184;48.774;8.918;2023-03-31T08:46:28;12.15;74.06
47434;SHT31;33184;48.774;8.918;2023-03-31T08:52:01;12.26;70.86
47434;SHT31;33184;48.774;8.918;2023-03-31T08:57:26;12.36;70.85
47434;SHT31;33184;48.774;8.918;2023-03-31T09:02:56;12.47;70.33
47434;SHT31;33184;48.774;8.918;2023-03-31T09:08:40;12.53;68.66
47434;SHT31;33184;48.774;8.918;2023-03-31T09:14:25;12.59;68.61
47434;SHT31;33184;48.774;8.918;2023-03-31T09:20:06;12.64;66.17
47434;SHT31;33184;48.774;8.918;2023-03-31T09:25:37;12.78;65.34
47434;SHT31;33184;48.774;8.918;2023-03-31T09:31:06;12.84;63.85
47434;SHT31;33184;48.774;8.918;2023-03-31T09:36:28;12.74;63.75
47434;SHT31;33184;48.774;8.918;2023-03-31T09:41:49;12.91;62.87
47434;SHT31;33184;48.774;8.918;2023-03-31T09:47:30;13.21;60.38
47434;SHT31;33184;48.774;8.918;2023-03-31T09:52:55;13.24;60.89
47434;SHT31;33184;48.774;8.918;2023-03-31T09:58:17;13.11;59.59
47434;SHT31;33184;48.774;8.918;2023-03-31T10:03:50;13.32;59.86
47434;SHT31;33184;48.774;8.918;2023-03-31T10:09:11;13.79;60.33
47434;SHT31;33184;48.774;8.918;2023-03-31T10:14:43;13.87;59.90
47434;SHT31;33184;48.774;8.918;2023-03-31T10:20:19;13.90;58.72
47434;SHT31;33184;48.774;8.918;2023-03-31T10:25:40;13.69;59.95
47434;SHT31;33184;48.774;8.918;2023-03-31T10:31:01;13.69;60.71
47434;SHT31;33184;48.774;8.918;2023-03-31T10:36:27;14.10;58.85
47434;SHT31;33184;48.774;8.918;2023-03-31T10:41:52;14.13;56.98
47434;SHT31;33184;48.774;8.918;2023-03-31T10:52:43;13.58;57.03
47434;SHT31;33184;48.774;8.918;2023-03-31T11:15:36;9.74;76.85
47434;SHT31;33184;48.774;8.918;2023-03-31T11:21:06;8.98;78.99
47434;SHT31;33184;48.774;8.918;2023-03-31T11:49:16;9.15;78.39
47434;SHT31;33184;48.774;8.918;2023-03-31T11:54:41;9.47;76.93
47434;SHT31;33184;48.774;8.918;2023-03-31T12:05:37;11.58;70.22
47434;SHT31;33184;48.774;8.918;2023-03-31T12:11:10;12.13;69.94
47434;SHT31;33184;48.774;8.918;2023-03-31T12:22:22;12.75;66.83
47434;SHT31;33184;48.774;8.918;2023-03-31T12:27:45;13.00;64.30
47434;SHT31;33184;48.774;8.918;2023-03-31T12:33:24;13.79;62.47
47434;SHT31;33184;48.774;8.918;2023-03-31T12:50:11;14.34;55.82
47434;SHT31;33184;48.774;8.918;2023-03-31T12:55:40;13.76;57.68
47434;SHT31;33184;48.774;8.918;2023-03-31T13:01:14;12.68;60.78
47434;SHT31;33184;48.774;8.918;2023-03-31T13:11:56;11.11;72.80
47434;SHT31;33184;48.774;8.918;2023-03-31T13:17:29;10.14;77.55
47434;SHT31;33184;48.774;8.918;2023-03-31T13:22:59;9.84;80.67
47434;SHT31;33184;48.774;8.918;2023-03-31T13:45:41;8.92;78.32
47434;SHT31;33184;48.774;8.918;2023-03-31T13:51:30;8.89;77.69
47434;SHT31;33184;48.774;8.918;2023-03-31T14:14:14;13.00;68.58
47434;SHT31;33184;48.774;8.918;2023-03-31T14:25:05;13.01;67.85
47434;SHT31;33184;48.774;8.918;2023-03-31T14:36:28;13.76;64.87
47434;SHT31;33184;48.774;8.918;2023-03-31T14:41:53;13.79;63.20
47434;SHT31;33184;48.774;8.918;2023-03-31T14:47:25;13.56;62.60
47434;SHT31;33184;48.774;8.918;2023-03-31T14:52:51;13.42;65.80
47434;SHT31;33184;48.774;8.918;2023-03-31T14:58:14;12.91;68.10
47434;SHT31;33184;48.774;8.918;2023-03-31T15:03:39;12.67;66.24
47434;SHT31;33184;48.774;8.918;2023-03-31T15:09:02;13.16;67.07
47434;SHT31;33184;48.774;8.918;2023-03-31T15:14:28;14.13;62.39
47434;SHT31;33184;48.774;8.918;2023-03-31T15:19:54;14.20;60.11
47434;SHT31;33184;48.774;8.918;2023-03-31T15:25:15;13.48;62.71
47434;SHT31;33184;48.774;8.918;2023-03-31T15:30:37;12.71;62.88
47434;SHT31;33184;48.774;8.918;2023-03-31T15:35:58;12.28;64.52
47434;SHT31;33184;48.774;8.918;2023-03-31T15:41:19;12.19;65.15
47434;SHT31;33184;48.774;8.918;2023-03-31T15:52:01;12.08;65.58
47434;SHT31;33184;48.774;8.918;2023-03-31T15:57:30;11.75;66.73
47434;SHT31;33184;48.774;8.918;2023-03-31T16:02:51;11.54;68.01
47434;SHT31;33184;48.774;8.918;2023-03-31T16:08:16;11.21;70.64
47434;SHT31;33184;48.774;8.918;2023-03-31T16:13:44;10.71;72.95
47434;SHT31;33184;48.774;8.918;2023-03-31T16:19:07;10.46;73.26
47434;SHT31;33184;48.774;8.918;2023-03-31T16:24:31;10.21;73.64
47434;SHT31;33184;48.774;8.918;2023-03-31T16:30:05;9.97;74.56
47434;SHT31;33184;48.774;8.918;2023-03-31T16:35:37;9.90;76.43
47434;SHT31;33184;48.774;8.918;2023-03-31T16:40:59;10.01;75.03
47434;SHT31;33184;48.774;8.918;2023-03-31T16:46:21;10.02;75.76
47434;SHT31;33184;48.774;8.918;2023-03-31T16:51:41;9.95;75.79
47434;SHT31;33184;48.774;8.918;2023-03-31T16:57:02;9.73;74.90
47434;SHT31;33184;48.774;8.918;2023-03-31T17:02:22;9.50;75.09
47434;SHT31;33184;48.774;8.918;2023-03-31T17:07:44;9.33;74.95
47434;SHT31;33184;48.774;8.918;2023-03-31T17:13:06;9.16;75.78
47434;SHT31;33184;48.774;8.918;2023-03-31T17:18:27;9.09;75.36
47434;SHT31;33184;48.774;8.918;2023-03-31T17:23:47;9.03;75.58
47434;SHT31;33184;48.774;8.918;2023-03-31T17:29:08;9.03;76.27
47434;SHT31;33184;48.774;8.918;2023-03-31T17:34:29;9.06;76.77
47434;SHT31;33184;48.774;8.918;2023-03-31T17:39:50;9.01;76.70
47434;SHT31;33184;48.774;8.918;2023-03-31T17:45:11;8.87;77.28
47434;SHT31;33184;48.774;8.918;2023-03-31T17:50:32;8.81;77.83
47434;SHT31;33184;48.774;8.918;2023-03-31T17:55:53;8.91;78.42
47434;SHT31;33184;48.774;8.918;2023-03-31T18:01:14;8.79;79.66
47434;SHT31;33184;48.774;8.918;2023-03-31T18:06:34;8.85;80.43
47434;SHT31;33184;48.774;8.918;2023-03-31T18:11:55;8.88;80.94
47434;SHT31;33184;48.774;8.918;2023-03-31T18:17:17;8.61;81.90
47434;SHT31;33184;48.774;8.918;2023-03-31T18:22:37;8.42;82.55
47434;SHT31;33184;48.774;8.918;2023-03-31T18:27:58;8.33;83.17
47434;SHT31;33184;48.774;8.918;2023-03-31T18:33:18;8.23;83.38
47434;SHT31;33184;48.774;8.918;2023-03-31T18:38:39;8.31;83.86
47434;SHT31;33184;48.774;8.918;2023-03-31T18:44:00;8.42;83.36
47434;SHT31;33184;48.774;8.918;2023-03-31T18:49:21;8.44;83.38
47434;SHT31;33184;48.774;8.918;2023-03-31T18:54:41;8.41;83.63
47434;SHT31;33184;48.774;8.918;2023-03-31T19:00:02;8.48;83.81
47434;SHT31;33184;48.774;8.918;2023-03-31T19:05:23;8.54;83.67
47434;SHT31;33184;48.774;8.918;2023-03-31T19:10:43;8.68;82.83
47434;SHT31;33184;48.774;8.918;2023-03-31T19:16:05;8.76;82.29
47434;SHT31;33184;48.774;8.918;2023-03-31T19:21:26;8.75;82.02
47434;SHT31;33184;48.774;8.918;2023-03-31T19:26:51;8.81;81.25
47434;SHT31;33184;48.774;8.918;2023-03-31T19:32:12;8.82;81.16
47434;SHT31;33184;48.774;8.918;2023-03-31T19:37:33;8.82;81.10
47434;SHT31;33184;48.774;8.918;2023-03-31T19:42:53;8.81;80.89
47434;SHT31;33184;48.774;8.918;2023-03-31T19:48:14;8.78;81.26
47434;SHT31;33184;48.774;8.918;2023-03-31T19:53:36;8.74;81.51
47434;SHT31;33184;48.774;8.918;2023-03-31T19:58:57;8.76;81.48
47434;SHT31;33184;48.774;8.918;2023-03-31T20:04:18;8.74;81.35
47434;SHT31;33184;48.774;8.918;2023-03-31T20:09:40;8.76;81.36
47434;SHT31;33184;48.774;8.918;2023-03-31T20:15:01;8.76;81.68
47434;SHT31;33184;48.774;8.918;2023-03-31T20:20:21;8.68;82.75
47434;SHT31;33184;48.774;8.918;2023-03-31T20:25:43;8.64;83.04
47434;SHT31;33184;48.774;8.918;2023-03-31T20:31:09;8.60;83.39
47434;SHT31;33184;48.774;8.918;2023-03-31T20:36:30;8.55;83.75
47434;SHT31;33184;48.774;8.918;2023-03-31T20:41:51;8.55;83.50
47434;SHT31;33184;48.774;8.918;2023-03-31T20:47:11;8.55;83.16
47434;SHT31;33184;48.774;8.918;2023-03-31T20:52:33;8.57;83.20
47434;SHT31;33184;48.774;8.918;2023-03-31T20:57:54;8.52;83.12
47434;SHT31;33184;48.774;8.918;2023-03-31T21:03:14;8.58;82.77
47434;SHT31;33184;48.774;8.918;2023-03-31T21:08:35;8.57;82.74
47434;SHT31;33184;48.774;8.918;2023-03-31T21:13:56;8.54;82.85
47434;SHT31;33184;48.774;8.918;2023-03-31T21:19:16;8.58;82.54
47434;SHT31;33184;48.774;8.918;2023-03-31T21:24:37;8.58;82.53
47434;SHT31;33184;48.774;8.918;2023-03-31T21:29:57;8.58;83.25
47434;SHT31;33184;48.774;8.918;2023-03-31T21:35:18;8.52;83.97
47434;SHT31;33184;48.774;8.918;2023-03-31T21:40:39;8.50;83.69
47434;SHT31;33184;48.774;8.918;2023-03-31T21:45:59;8.48;83.98
47434;SHT31;33184;48.774;8.918;2023-03-31T21:51:20;8.41;84.31
47434;SHT31;33184;48.774;8.918;2023-03-31T21:56:42;8.31;84.40
47434;SHT31;33184;48.774;8.918;2023-03-31T22:02:04;8.30;84.31
47434;SHT31;33184;48.774;8.918;2023-03-31T22:07:24;8.27;84.31
47434;SHT31;33184;48.774;8.918;2023-03-31T22:12:45;8.27;84.14
47434;SHT31;33184;48.774;8.918;2023-03-31T22:18:05;8.21;84.71
47434;SHT31;33184;48.774;8.918;2023-03-31T22:23:26;8.10;85.13
47434;SHT31;33184;48.774;8.918;2023-03-31T22:28:47;8.00;85.26
47434;SHT31;33184;48.774;8.918;2023-03-31T22:34:08;7.92;85.29
47434;SHT31;33184;48.774;8.918;2023-03-31T22:39:29;7.86;85.24
47434;SHT31;33184;48.774;8.918;2023-03-31T22:44:49;7.85;85.07
47434;SHT31;33184;48.774;8.918;2023-03-31T22:50:10;7.85;84.64
47434;SHT31;33184;48.774;8.918;2023-03-31T22:55:31;7.87;84.56
47434;SHT31;33184;48.774;8.918;2023-03-31T23:00:58;7.87;84.50
47434;SHT31;33184;48.774;8.918;2023-03-31T23:06:19;7.92;84.27
47434;SHT31;33184;48.774;8.918;2023-03-31T23:11:41;7.86;84.38
47434;SHT31;33184;48.774;8.918;2023-03-31T23:17:02;7.86;84.33
47434;SHT31;33184;48.774;8.918;2023-03-31T23:22:22;7.76;84.60
47434;SHT31;33184;48.774;8.918;2023-03-31T23:27:44;7.79;84.04
47434;SHT31;33184;48.774;8.918;2023-03-31T23:33:05;7.81;83.67
47434;SHT31;33184;48.774;8.918;2023-03-31T23:38:26;7.78;83.44
47434;SHT31;33184;48.774;8.918;2023-03-31T23:43:48;7.85;82.63
47434;SHT31;33184;48.774;8.918;2023-03-31T23:49:10;7.92;82.06
47434;SHT31;33184;48.774;8.918;2023-03-31T23:54:31;7.97;81.48
47434;SHT31;33184;48.774;8.918;2023-03-31T23:59:52;8.00;81.30
